createdAt,value
2022-10-13T00:00:19.047Z,2.20
2022-10-13T00:02:48.894Z,2.16
2022-10-13T00:05:18.605Z,2.18
2022-10-13T00:07:48.463Z,2.19
2022-10-13T00:10:18.188Z,2.11
2022-10-13T00:12:47.977Z,2.11
2022-10-13T00:15:18.677Z,2.14
2022-10-13T00:17:49.486Z,2.08
2022-10-13T00:20:19.608Z,1.99
2022-10-13T00:22:49.407Z,2.04
2022-10-13T00:25:19.281Z,2.01
2022-10-13T00:27:49.195Z,2.01
2022-10-13T00:30:18.919Z,2.03
2022-10-13T00:32:49.591Z,2.02
2022-10-13T00:35:19.386Z,1.95
2022-10-13T00:37:49.205Z,1.99
2022-10-13T00:40:19.195Z,1.99
2022-10-13T00:42:50.056Z,1.99
2022-10-13T00:45:25.648Z,1.95
2022-10-13T00:48:01.101Z,1.91
2022-10-13T00:50:33.941Z,1.97
2022-10-13T00:53:05.859Z,2.01
2022-10-13T00:55:38.678Z,1.95
2022-10-13T00:58:11.222Z,1.97
2022-10-13T01:00:42.132Z,1.94
2022-10-13T01:03:12.300Z,1.95
2022-10-13T01:05:43.725Z,1.94
2022-10-13T01:08:15.108Z,1.90
2022-10-13T01:10:56.229Z,1.90
2022-10-13T01:13:37.849Z,1.83
2022-10-13T01:16:21.036Z,1.83
2022-10-13T01:18:57.372Z,1.86
2022-10-13T01:21:57.906Z,1.78
2022-10-13T01:24:42.735Z,1.79
2022-10-13T01:27:50.272Z,1.82
2022-10-13T01:30:22.312Z,1.87
2022-10-13T01:33:16.409Z,1.92
2022-10-13T01:35:55.072Z,1.90
2022-10-13T01:38:36.723Z,1.90
2022-10-13T01:41:16.034Z,1.90
2022-10-13T01:43:51.720Z,1.90
2022-10-13T01:46:31.307Z,1.88
2022-10-13T01:49:04.481Z,1.87
2022-10-13T01:51:36.298Z,1.88
2022-10-13T01:54:07.040Z,1.87
2022-10-13T01:56:37.125Z,1.83
2022-10-13T01:59:12.671Z,1.83
2022-10-13T02:01:48.673Z,1.87
2022-10-13T02:04:41.495Z,1.91
2022-10-13T02:07:21.183Z,1.91
2022-10-13T02:10:12.099Z,1.86
2022-10-13T02:12:45.045Z,1.83
2022-10-13T02:15:17.880Z,1.84
2022-10-13T02:17:47.715Z,1.84
2022-10-13T02:20:22.963Z,1.84
2022-10-13T02:23:01.670Z,1.84
2022-10-13T02:25:35.683Z,1.83
2022-10-13T02:28:09.818Z,1.81
2022-10-13T02:30:42.100Z,1.71
2022-10-13T02:33:12.849Z,1.83
2022-10-13T02:38:41.718Z,1.81
2022-10-13T02:41:12.078Z,1.75
2022-10-13T02:43:42.260Z,1.71
2022-10-13T02:46:14.456Z,1.69
2022-10-13T02:48:45.896Z,1.69
2022-10-13T02:51:15.932Z,1.69
2022-10-13T02:53:46.051Z,1.69
2022-10-13T02:56:15.610Z,1.69
2022-10-13T02:58:45.583Z,1.69
2022-10-13T03:01:16.462Z,1.69
2022-10-13T03:03:46.398Z,1.66
2022-10-13T03:06:15.951Z,1.65
2022-10-13T03:08:45.836Z,1.65
2022-10-13T03:11:15.417Z,1.61
2022-10-13T03:13:46.878Z,1.61
2022-10-13T03:16:16.669Z,1.59
2022-10-13T03:18:46.781Z,1.54
2022-10-13T03:21:16.603Z,1.54
2022-10-13T03:23:47.440Z,1.55
2022-10-13T03:26:17.349Z,1.50
2022-10-13T03:28:52.194Z,1.48
2022-10-13T03:31:22.825Z,1.48
2022-10-13T03:33:52.819Z,1.46
2022-10-13T03:36:22.620Z,1.43
2022-10-13T03:38:52.466Z,1.41
2022-10-13T03:41:22.678Z,1.38
2022-10-13T03:43:53.057Z,1.39
2022-10-13T03:46:25.703Z,1.40
2022-10-13T03:48:56.524Z,1.28
2022-10-13T03:51:26.993Z,1.34
2022-10-13T03:53:58.121Z,1.30
2022-10-13T03:56:27.946Z,1.27
2022-10-13T03:58:59.328Z,1.31
2022-10-13T04:01:31.104Z,1.21
2022-10-13T04:04:05.599Z,1.24
2022-10-13T04:06:35.397Z,1.24
2022-10-13T04:09:07.918Z,1.25
2022-10-13T04:11:37.933Z,1.19
2022-10-13T04:14:07.615Z,1.19
2022-10-13T04:16:39.110Z,1.17
2022-10-13T04:19:07.968Z,1.20
2022-10-13T04:21:37.938Z,1.16
2022-10-13T04:24:08.100Z,1.17
2022-10-13T04:26:38.279Z,1.15
2022-10-13T04:29:12.387Z,1.13
2022-10-13T04:31:45.810Z,1.13
2022-10-13T04:34:15.664Z,1.13
2022-10-13T04:36:45.474Z,1.12
2022-10-13T04:39:14.999Z,1.09
2022-10-13T04:41:44.982Z,1.11
2022-10-13T04:44:14.736Z,1.11
2022-10-13T04:46:44.540Z,1.09
2022-10-13T04:49:15.322Z,1.16
2022-10-13T04:51:45.389Z,1.09
2022-10-13T04:54:15.004Z,1.02
2022-10-13T04:56:46.468Z,0.98
2022-10-13T04:59:15.973Z,0.95
2022-10-13T05:01:45.776Z,0.92
2022-10-13T05:04:15.341Z,0.91
2022-10-13T05:07:12.607Z,0.94
2022-10-13T05:09:18.121Z,0.94
2022-10-13T05:11:47.915Z,0.99
2022-10-13T05:14:17.723Z,0.98
2022-10-13T05:16:47.917Z,0.86
2022-10-13T05:19:17.576Z,0.86
2022-10-13T05:21:47.373Z,0.85
2022-10-13T05:24:17.071Z,0.87
2022-10-13T05:26:49.074Z,0.90
2022-10-13T05:29:18.975Z,0.92
2022-10-13T05:31:49.072Z,0.91
2022-10-13T05:34:19.582Z,0.94
2022-10-13T05:36:50.372Z,0.93
2022-10-13T05:39:19.161Z,0.98
2022-10-13T05:41:48.971Z,1.07
2022-10-13T05:44:20.735Z,1.05
2022-10-13T05:46:58.272Z,1.12
2022-10-13T05:49:28.459Z,1.19
2022-10-13T05:52:04.319Z,1.26
2022-10-13T05:54:42.937Z,1.31
2022-10-13T05:57:15.809Z,1.36
2022-10-13T05:59:51.315Z,1.42
2022-10-13T06:02:24.310Z,1.46
2022-10-13T06:04:57.419Z,1.68
2022-10-13T06:07:32.275Z,1.68
2022-10-13T06:10:04.213Z,1.80
2022-10-13T06:12:34.347Z,2.10
2022-10-13T06:15:04.959Z,2.10
2022-10-13T06:17:40.725Z,2.20
2022-10-13T06:20:11.086Z,2.35
2022-10-13T06:22:41.008Z,2.50
2022-10-13T06:25:10.965Z,2.61
2022-10-13T06:27:40.847Z,2.74
2022-10-13T06:30:11.283Z,2.87
2022-10-13T06:32:40.787Z,2.98
2022-10-13T06:35:10.924Z,3.15
2022-10-13T06:37:40.467Z,3.29
2022-10-13T06:40:12.489Z,3.46
2022-10-13T06:42:42.158Z,3.60
2022-10-13T06:45:12.121Z,3.85
2022-10-13T06:47:42.439Z,3.97
2022-10-13T06:50:11.961Z,4.10
2022-10-13T06:52:43.308Z,4.25
2022-10-13T06:55:13.124Z,4.45
2022-10-13T06:57:43.009Z,4.66
2022-10-13T07:00:13.478Z,4.89
2022-10-13T07:02:43.799Z,5.11
2022-10-13T07:05:14.106Z,5.43
2022-10-13T07:07:45.584Z,5.65
2022-10-13T07:10:15.479Z,5.87
2022-10-13T07:12:45.878Z,6.15
2022-10-13T07:15:18.267Z,6.39
2022-10-13T07:17:55.984Z,6.60
2022-10-13T07:20:34.755Z,6.98
2022-10-13T07:23:09.533Z,7.22
2022-10-13T07:25:47.532Z,7.44
2022-10-13T07:28:27.656Z,7.71
2022-10-13T07:30:57.557Z,7.71
2022-10-13T07:33:28.698Z,7.80
2022-10-13T07:36:00.301Z,7.92
2022-10-13T07:38:30.118Z,7.86
2022-10-13T07:41:04.265Z,8.06
2022-10-13T07:43:34.687Z,8.06
2022-10-13T07:46:07.946Z,8.38
2022-10-13T07:48:37.596Z,8.62
2022-10-13T07:51:08.723Z,9.00
2022-10-13T07:53:39.173Z,9.38
2022-10-13T07:56:11.272Z,9.63
2022-10-13T07:58:43.215Z,9.99
2022-10-13T08:01:13.940Z,9.95
2022-10-13T08:03:48.931Z,10.40
2022-10-13T08:06:18.777Z,10.69
2022-10-13T08:08:49.579Z,11.11
2022-10-13T08:11:21.075Z,11.35
2022-10-13T08:13:52.096Z,11.74
2022-10-13T08:16:24.583Z,11.80
2022-10-13T08:18:54.714Z,12.04
2022-10-13T08:21:45.956Z,12.04
2022-10-13T08:23:56.071Z,12.08
2022-10-13T08:26:28.427Z,12.42
2022-10-13T08:29:16.556Z,13.01
2022-10-13T08:31:29.986Z,12.84
2022-10-13T08:33:59.979Z,13.79
2022-10-13T08:36:29.759Z,13.79
2022-10-13T08:38:59.563Z,13.44
2022-10-13T08:41:37.119Z,14.05
2022-10-13T08:45:06.397Z,14.01
2022-10-13T08:47:13.381Z,13.75
2022-10-13T08:49:46.260Z,13.97
2022-10-13T08:52:24.985Z,13.82
2022-10-13T08:54:57.093Z,13.50
2022-10-13T08:57:27.371Z,13.90
2022-10-13T08:59:57.421Z,14.03
2022-10-13T09:02:32.380Z,14.41
2022-10-13T09:05:05.127Z,14.16
2022-10-13T09:07:37.477Z,13.74
2022-10-13T09:10:08.319Z,13.78
2022-10-13T09:12:37.099Z,13.84
2022-10-13T09:15:09.868Z,14.07
2022-10-13T09:17:42.409Z,14.06
2022-10-13T09:20:21.368Z,14.66
2022-10-13T09:23:08.921Z,15.18
2022-10-13T09:25:44.366Z,14.81
2022-10-13T09:28:31.213Z,15.22
2022-10-13T09:31:19.415Z,15.58
2022-10-13T09:34:01.233Z,15.54
2022-10-13T09:36:31.248Z,15.27
2022-10-13T09:39:16.041Z,15.19
2022-10-13T09:41:46.768Z,15.20
2022-10-13T09:44:25.533Z,15.61
2022-10-13T09:46:59.536Z,15.82
2022-10-13T09:49:43.699Z,15.71
2022-10-13T09:52:19.333Z,15.64
2022-10-13T09:54:52.582Z,16.15
2022-10-13T09:57:28.141Z,16.06
2022-10-13T10:00:07.173Z,15.80
2022-10-13T10:02:58.553Z,15.98
2022-10-13T10:05:34.357Z,15.64
2022-10-13T10:09:01.421Z,16.03
2022-10-13T10:11:17.123Z,16.26
2022-10-13T10:13:47.260Z,16.53
2022-10-13T10:16:33.082Z,16.56
2022-10-13T10:19:21.055Z,16.26
2022-10-13T10:22:04.288Z,16.26
2022-10-13T10:24:41.403Z,16.26
2022-10-13T10:30:11.330Z,17.07
2022-10-13T10:32:56.064Z,17.36
2022-10-13T10:35:36.410Z,17.12
2022-10-13T10:38:15.243Z,17.11
2022-10-13T10:41:06.148Z,17.16
2022-10-13T10:43:50.745Z,17.15
2022-10-13T10:46:26.433Z,17.54
2022-10-13T10:49:02.239Z,17.54
2022-10-13T10:51:35.209Z,16.86
2022-10-13T10:54:28.593Z,16.86
2022-10-13T10:57:07.218Z,17.30
2022-10-13T10:59:53.223Z,16.84
2022-10-13T11:03:00.486Z,17.72
2022-10-13T11:05:52.427Z,17.73
2022-10-13T11:08:30.564Z,17.74
2022-10-13T11:11:26.602Z,17.52
2022-10-13T11:14:03.641Z,17.49
2022-10-13T11:16:38.974Z,18.00
2022-10-13T11:19:32.210Z,18.14
2022-10-13T11:22:05.440Z,17.75
2022-10-13T11:24:41.628Z,17.91
2022-10-13T11:27:18.866Z,18.20
2022-10-13T11:29:56.197Z,18.42
2022-10-13T11:32:33.369Z,18.42
2022-10-13T11:35:15.096Z,18.66
2022-10-13T11:38:09.239Z,18.66
2022-10-13T11:41:03.513Z,18.14
2022-10-13T11:43:42.563Z,18.79
2022-10-13T11:46:30.119Z,18.69
2022-10-13T11:49:18.336Z,18.60
2022-10-13T11:51:54.317Z,18.85
2022-10-13T11:54:27.139Z,18.72
2022-10-13T11:56:58.578Z,18.52
2022-10-13T11:59:33.823Z,18.68
2022-10-13T12:02:19.279Z,18.36
2022-10-13T12:05:09.871Z,18.33
2022-10-13T12:07:42.948Z,18.47
2022-10-13T12:10:21.294Z,18.26
2022-10-13T12:12:51.729Z,18.56
2022-10-13T12:15:37.336Z,18.78
2022-10-13T12:18:25.777Z,19.00
2022-10-13T12:21:02.162Z,18.82
2022-10-13T12:23:33.878Z,18.67
2022-10-13T12:26:04.219Z,18.94
2022-10-13T12:29:01.238Z,18.83
2022-10-13T12:31:42.884Z,18.65
2022-10-13T12:34:35.325Z,19.22
2022-10-13T12:37:14.339Z,19.34
2022-10-13T12:39:44.271Z,19.40
2022-10-13T12:42:16.348Z,18.76
2022-10-13T12:44:47.368Z,19.36
2022-10-13T12:47:42.468Z,19.33
2022-10-13T12:50:30.347Z,19.07
2022-10-13T12:53:15.057Z,19.15
2022-10-13T12:55:47.889Z,19.33
2022-10-13T12:58:26.280Z,19.34
2022-10-13T13:00:58.768Z,18.79
2022-10-13T13:03:30.921Z,19.08
2022-10-13T13:06:09.869Z,19.34
2022-10-13T13:08:40.002Z,19.82
2022-10-13T13:11:24.682Z,19.67
2022-10-13T13:13:57.628Z,19.58
2022-10-13T13:16:27.402Z,19.43
2022-10-13T13:18:57.474Z,19.49
2022-10-13T13:21:27.150Z,19.56
2022-10-13T13:23:56.972Z,19.56
2022-10-13T13:26:28.121Z,18.89
2022-10-13T13:28:57.920Z,18.96
2022-10-13T13:31:27.723Z,18.92
2022-10-13T13:33:57.519Z,18.81
2022-10-13T13:36:28.223Z,18.67
2022-10-13T13:38:58.017Z,18.81
2022-10-13T13:41:29.739Z,18.53
2022-10-13T13:43:59.525Z,18.22
2022-10-13T13:46:29.384Z,18.50
2022-10-13T13:48:59.577Z,18.70
2022-10-13T13:51:29.531Z,18.33
2022-10-13T13:53:59.405Z,18.57
2022-10-13T13:56:29.196Z,18.56
2022-10-13T13:58:58.971Z,18.51
2022-10-13T14:01:28.819Z,18.54
2022-10-13T14:03:59.714Z,18.31
2022-10-13T14:06:29.519Z,17.89
2022-10-13T14:08:59.319Z,17.89
2022-10-13T14:11:29.398Z,17.91
2022-10-13T14:14:01.711Z,17.96
2022-10-13T14:16:31.819Z,17.72
2022-10-13T14:19:01.890Z,17.86
2022-10-13T14:21:31.692Z,17.86
2022-10-13T14:24:03.316Z,17.54
2022-10-13T14:26:33.115Z,17.76
2022-10-13T14:29:03.072Z,17.74
2022-10-13T14:31:34.087Z,17.48
2022-10-13T14:34:04.034Z,17.48
2022-10-13T14:36:34.029Z,17.29
2022-10-13T14:39:03.455Z,17.23
2022-10-13T14:41:33.421Z,16.96
2022-10-13T14:44:03.246Z,16.78
2022-10-13T14:46:33.018Z,16.77
2022-10-13T14:49:03.108Z,16.84
2022-10-13T14:51:33.953Z,16.49
2022-10-13T14:54:04.499Z,16.50
2022-10-13T14:56:34.539Z,16.50
2022-10-13T14:59:07.099Z,16.28
2022-10-13T15:01:44.401Z,16.29
2022-10-13T15:04:13.903Z,16.14
2022-10-13T15:06:43.674Z,16.09
2022-10-13T15:09:13.183Z,16.02
2022-10-13T15:11:43.187Z,15.93
2022-10-13T15:14:15.640Z,16.04
2022-10-13T15:16:45.432Z,15.77
2022-10-13T15:19:15.077Z,15.71
2022-10-13T15:21:44.856Z,15.53
2022-10-13T15:24:14.623Z,15.45
2022-10-13T15:26:44.476Z,15.29
2022-10-13T15:29:13.991Z,15.35
2022-10-13T15:31:43.765Z,15.06
2022-10-13T15:34:13.275Z,14.78
2022-10-13T15:36:43.067Z,14.50
2022-10-13T15:39:12.571Z,14.38
2022-10-13T15:41:42.433Z,14.13
2022-10-13T15:44:12.235Z,13.98
2022-10-13T15:47:05.576Z,13.79
2022-10-13T15:49:13.484Z,13.64
2022-10-13T15:51:43.350Z,13.46
2022-10-13T15:54:13.341Z,13.69
2022-10-13T15:56:43.514Z,13.32
2022-10-13T15:59:13.027Z,13.06
2022-10-13T16:01:42.841Z,12.92
2022-10-13T16:04:12.412Z,12.80
2022-10-13T16:06:42.361Z,12.67
2022-10-13T16:09:11.865Z,12.46
2022-10-13T16:11:41.650Z,12.33
2022-10-13T16:14:14.103Z,12.23
2022-10-13T16:16:43.884Z,12.15
2022-10-13T16:19:13.767Z,11.96
2022-10-13T16:21:46.924Z,11.72
2022-10-13T16:24:16.679Z,11.62
2022-10-13T16:26:46.643Z,11.55
2022-10-13T16:29:16.432Z,11.20
2022-10-13T16:31:46.227Z,11.27
2022-10-13T16:34:16.107Z,11.44
2022-10-13T16:36:46.170Z,11.28
2022-10-13T16:39:15.745Z,11.09
2022-10-13T16:41:46.972Z,11.10
2022-10-13T16:44:18.044Z,10.93
2022-10-13T16:46:49.821Z,10.76
2022-10-13T16:49:19.472Z,10.74
2022-10-13T16:51:49.575Z,10.74
2022-10-13T16:54:19.139Z,10.72
2022-10-13T16:56:50.558Z,10.73
2022-10-13T16:59:20.349Z,10.58
2022-10-13T17:01:50.210Z,10.46
2022-10-13T17:04:22.252Z,10.25
2022-10-13T17:06:51.463Z,10.33
2022-10-13T17:09:21.096Z,10.21
2022-10-13T17:11:51.093Z,10.11
2022-10-13T17:14:20.591Z,10.27
2022-10-13T17:16:54.142Z,10.25
2022-10-13T17:19:21.668Z,10.29
2022-10-13T17:21:51.449Z,10.03
2022-10-13T17:24:21.472Z,10.03
2022-10-13T17:26:51.999Z,9.95
2022-10-13T17:29:21.782Z,9.71
2022-10-13T17:31:52.179Z,9.60
2022-10-13T17:34:22.543Z,9.44
2022-10-13T17:36:53.525Z,9.29
2022-10-13T17:39:23.033Z,9.30
2022-10-13T17:41:52.807Z,9.25
2022-10-13T17:44:22.416Z,9.21
2022-10-13T17:46:52.338Z,9.18
2022-10-13T17:49:22.244Z,9.09
2022-10-13T17:51:54.063Z,8.89
2022-10-13T17:54:24.422Z,8.90
2022-10-13T17:56:56.995Z,8.73
2022-10-13T17:59:26.955Z,8.76
2022-10-13T18:01:56.769Z,8.81
2022-10-13T18:04:28.233Z,8.73
2022-10-13T18:06:58.020Z,8.61
2022-10-13T18:09:27.939Z,8.54
2022-10-13T18:11:57.787Z,8.50
2022-10-13T18:14:27.795Z,8.53
2022-10-13T18:16:57.666Z,8.41
2022-10-13T18:19:27.573Z,8.45
2022-10-13T18:21:57.366Z,8.27
2022-10-13T18:24:27.165Z,8.27
2022-10-13T18:26:58.173Z,8.27
2022-10-13T18:29:30.021Z,8.19
2022-10-13T18:31:59.792Z,8.20
2022-10-13T18:34:29.960Z,8.15
2022-10-13T18:36:59.746Z,8.10
2022-10-13T18:39:30.209Z,8.06
2022-10-13T18:41:59.701Z,8.05
2022-10-13T18:44:31.207Z,8.00
2022-10-13T18:47:01.001Z,7.94
2022-10-13T18:49:33.594Z,7.94
2022-10-13T18:52:03.643Z,7.83
2022-10-13T18:54:33.688Z,8.02
2022-10-13T18:57:03.578Z,7.94
2022-10-13T18:59:35.005Z,7.84
2022-10-13T19:02:04.905Z,7.82
2022-10-13T19:04:36.925Z,7.78
2022-10-13T19:07:07.167Z,7.72
2022-10-13T19:09:36.942Z,7.66
2022-10-13T19:12:07.081Z,7.60
2022-10-13T19:14:36.912Z,7.60
2022-10-13T19:17:06.742Z,7.57
2022-10-13T19:19:38.983Z,7.51
2022-10-13T19:22:07.915Z,7.53
2022-10-13T19:24:37.739Z,7.58
2022-10-13T19:27:07.226Z,7.52
2022-10-13T19:29:38.394Z,7.45
2022-10-13T19:32:08.267Z,7.45
2022-10-13T19:34:38.411Z,7.45
2022-10-13T19:37:08.359Z,7.44
2022-10-13T19:39:38.475Z,7.45
2022-10-13T19:42:08.018Z,7.48
2022-10-13T19:44:37.820Z,7.52
2022-10-13T19:47:07.290Z,7.54
2022-10-13T19:49:37.141Z,7.67
2022-10-13T19:52:07.974Z,7.66
2022-10-13T19:54:39.994Z,7.66
2022-10-13T19:57:10.035Z,7.71
2022-10-13T19:59:44.028Z,7.79
2022-10-13T20:02:11.918Z,7.85
2022-10-13T20:04:41.549Z,7.85
2022-10-13T20:07:11.065Z,7.91
2022-10-13T20:09:41.787Z,7.93
2022-10-13T20:12:11.769Z,7.94
2022-10-13T20:14:41.575Z,8.01
2022-10-13T20:17:11.001Z,7.94
2022-10-13T20:19:40.813Z,8.02
2022-10-13T20:22:10.624Z,8.07
2022-10-13T20:24:40.417Z,8.08
2022-10-13T20:27:10.207Z,8.13
2022-10-13T20:29:40.074Z,8.12
2022-10-13T20:32:10.143Z,8.13
2022-10-13T20:34:40.047Z,8.15
2022-10-13T20:37:09.725Z,8.17
2022-10-13T20:39:41.141Z,8.18
2022-10-13T20:42:10.923Z,8.22
2022-10-13T20:44:41.296Z,8.18
2022-10-13T20:47:11.115Z,8.16
2022-10-13T20:49:40.917Z,8.16
2022-10-13T20:52:10.905Z,8.14
2022-10-13T20:54:40.771Z,8.13
2022-10-13T20:57:10.402Z,8.04
2022-10-13T20:59:40.306Z,7.99
2022-10-13T21:02:13.186Z,7.94
2022-10-13T21:04:43.066Z,7.94
2022-10-13T21:07:13.187Z,7.91
2022-10-13T21:09:42.985Z,7.81
2022-10-13T21:12:12.590Z,7.71
2022-10-13T21:14:42.451Z,7.68
2022-10-13T21:17:12.187Z,7.62
2022-10-13T21:19:42.036Z,7.54
2022-10-13T21:22:11.664Z,7.59
2022-10-13T21:24:41.461Z,7.50
2022-10-13T21:27:11.106Z,7.44
2022-10-13T21:29:40.966Z,7.46
2022-10-13T21:32:11.467Z,7.51
2022-10-13T21:34:41.792Z,7.51
2022-10-13T21:37:11.395Z,7.50
2022-10-13T21:39:42.217Z,7.62
2022-10-13T21:42:12.212Z,7.49
2022-10-13T21:44:42.032Z,7.41
2022-10-13T21:47:11.523Z,7.41
2022-10-13T21:49:41.345Z,7.41
2022-10-13T21:52:10.841Z,7.37
2022-10-13T21:54:40.797Z,7.35
2022-10-13T21:57:10.520Z,7.33
2022-10-13T21:59:40.344Z,7.34
2022-10-13T22:02:09.849Z,7.35
2022-10-13T22:04:40.089Z,7.35
2022-10-13T22:07:09.953Z,7.35
2022-10-13T22:09:39.804Z,7.34
2022-10-13T22:12:09.511Z,7.30
2022-10-13T22:14:39.367Z,7.28
2022-10-13T22:17:09.113Z,7.29
2022-10-13T22:19:39.955Z,7.29
2022-10-13T22:22:09.877Z,7.27
2022-10-13T22:24:39.677Z,7.22
2022-10-13T22:27:09.191Z,7.08
2022-10-13T22:29:39.071Z,7.10
2022-10-13T22:32:08.957Z,7.08
2022-10-13T22:34:38.778Z,7.11
2022-10-13T22:37:08.616Z,7.12
2022-10-13T22:39:38.420Z,7.13
2022-10-13T22:42:10.975Z,7.12
2022-10-13T22:44:41.774Z,7.16
2022-10-13T22:47:11.582Z,7.28
2022-10-13T22:49:41.375Z,7.23
2022-10-13T22:52:11.455Z,7.25
2022-10-13T22:54:41.371Z,7.25
2022-10-13T22:57:11.213Z,7.06
2022-10-13T22:59:41.014Z,7.06
2022-10-13T23:02:10.828Z,7.10
2022-10-13T23:04:40.887Z,7.04
2022-10-13T23:07:10.715Z,7.04
2022-10-13T23:09:40.745Z,7.06
2022-10-13T23:12:10.546Z,7.07
2022-10-13T23:14:40.348Z,7.07
2022-10-13T23:17:10.195Z,7.06
2022-10-13T23:19:40.002Z,7.03
2022-10-13T23:22:09.523Z,6.95
2022-10-13T23:24:39.319Z,6.99
2022-10-13T23:27:09.072Z,6.97
2022-10-13T23:29:38.895Z,6.94
2022-10-13T23:32:09.939Z,6.96
2022-10-13T23:34:39.962Z,6.96
2022-10-13T23:37:10.250Z,6.99
2022-10-13T23:39:40.181Z,7.04
2022-10-13T23:42:10.186Z,7.07
2022-10-13T23:44:39.979Z,7.11
2022-10-13T23:47:09.484Z,7.07
2022-10-13T23:49:39.287Z,7.11
2022-10-13T23:52:11.114Z,7.17
2022-10-13T23:54:40.145Z,7.22
2022-10-13T23:57:09.656Z,7.25
2022-10-13T23:59:39.457Z,7.25
